Time;durP1;ratioP1;P1;durP2;ratioP2;P2;SDS_P1;SDS_P2;PMS_P1;PMS_P2;Temp;Humidity;BMP_temperature;BMP_pressure;BME280_temperature;BME280_humidity;BME280_pressure;Samples;Min_cycle;Max_cycle;Signal;HPM_P1;HPM_P2
2021/11/03 00:02:05;;;;;;;39.53;28.70;;;;;;;12.44;70.18;100039.16;5103562;28;20047;-72
2021/11/03 00:04:32;;;;;;;41.63;30.42;;;;;;;12.68;69.81;100039.69;5091966;28;20100;-72
2021/11/03 00:06:57;;;;;;;43.42;29.42;;;;;;;12.77;69.01;100034.31;5090085;28;20066;-73
2021/11/03 00:09:23;;;;;;;39.97;29.10;;;;;;;12.53;68.71;100027.66;5100912;28;20035;-72
2021/11/03 00:11:49;;;;;;;43.17;28.92;;;;;;;12.54;69.35;100042.53;5098805;28;20383;-71
2021/11/03 00:14:14;;;;;;;50.22;30.83;;;;;;;12.72;69.03;100048.44;5100046;28;20058;-72
2021/11/03 00:16:40;;;;;;;42.72;30.95;;;;;;;12.52;69.54;100057.47;5090113;28;20471;-72
2021/11/03 00:19:05;;;;;;;41.38;28.73;;;;;;;12.82;68.69;100053.53;5099034;28;20039;-72
2021/11/03 00:21:30;;;;;;;39.70;27.52;;;;;;;12.51;68.46;100023.28;5097986;28;20032;-72
2021/11/03 00:23:56;;;;;;;44.15;31.15;;;;;;;12.86;68.32;100057.00;5100839;28;20048;-72
2021/11/03 00:26:21;;;;;;;43.33;29.33;;;;;;;12.73;68.34;100068.59;5101456;28;20184;-71
2021/11/03 00:28:47;;;;;;;38.80;27.48;;;;;;;12.91;68.17;100064.84;5071048;28;20036;-72
2021/11/03 00:31:12;;;;;;;35.80;27.85;;;;;;;12.81;68.39;100077.28;5091619;28;20043;-72
2021/11/03 00:33:38;;;;;;;39.97;28.20;;;;;;;12.18;69.31;100054.44;5096567;28;20511;-72
2021/11/03 00:36:04;;;;;;;36.75;26.33;;;;;;;11.84;70.52;100063.50;5090065;28;20043;-71
2021/11/03 00:38:30;;;;;;;34.47;25.98;;;;;;;12.36;69.71;100080.50;5090235;28;20039;-70
2021/11/03 00:40:56;;;;;;;35.42;25.13;;;;;;;12.63;68.83;100092.41;5086916;28;20055;-70
2021/11/03 00:43:22;;;;;;;36.47;25.73;;;;;;;12.09;70.04;100086.97;5088516;28;20051;-70
2021/11/03 00:45:48;;;;;;;37.10;26.48;;;;;;;12.29;69.95;100091.09;5090366;28;20044;-73
2021/11/03 00:48:14;;;;;;;36.92;25.90;;;;;;;12.27;69.31;100070.09;5071563;28;20051;-73
2021/11/03 00:50:40;;;;;;;37.70;27.23;;;;;;;12.43;68.87;100061.13;5090511;28;20035;-74
2021/11/03 00:53:06;;;;;;;37.22;26.83;;;;;;;12.72;68.71;100091.44;5088477;28;20749;-74
2021/11/03 00:55:32;;;;;;;36.60;26.25;;;;;;;12.52;68.86;100077.66;5087760;28;20045;-74
2021/11/03 00:57:57;;;;;;;34.58;26.00;;;;;;;12.66;68.68;100094.13;5089646;28;20077;-71
2021/11/03 01:00:23;;;;;;;36.53;26.80;;;;;;;12.27;70.17;100106.94;5070467;28;20090;-74
2021/11/03 01:02:50;;;;;;;33.80;25.10;;;;;;;12.20;69.51;100071.94;5091272;28;20056;-73
2021/11/03 01:05:19;;;;;;;33.97;24.33;;;;;;;12.62;69.23;100106.47;5103235;28;20541;-73
2021/11/03 01:07:45;;;;;;;35.35;24.80;;;;;;;12.97;67.68;100081.41;5103356;28;20062;-74
2021/11/03 01:10:12;;;;;;;34.90;24.23;;;;;;;13.08;67.53;100100.53;5099006;28;20466;-73
2021/11/03 01:12:38;;;;;;;37.83;25.15;;;;;;;12.95;67.72;100108.66;5090179;28;20123;-73
2021/11/03 01:15:08;;;;;;;38.53;24.50;;;;;;;12.64;68.45;100074.84;5089266;28;20437;-74
2021/11/03 01:17:34;;;;;;;31.65;23.05;;;;;;;12.86;68.34;100112.28;5090726;28;20786;-73
2021/11/03 01:19:59;;;;;;;34.65;24.23;;;;;;;12.64;69.25;100103.81;5099575;28;20055;-74
2021/11/03 01:22:25;;;;;;;30.67;22.23;;;;;;;12.74;68.39;100091.41;5088148;28;20175;-72
2021/11/03 01:24:50;;;;;;;32.33;25.55;;;;;;;12.66;69.05;100120.44;5099341;28;20084;-74
2021/11/03 01:27:16;;;;;;;34.00;24.20;;;;;;;12.61;68.87;100114.38;5101559;28;20063;-73
2021/11/03 01:29:41;;;;;;;31.77;23.10;;;;;;;12.71;68.97;100115.13;5096754;28;20056;-71
2021/11/03 01:32:07;;;;;;;34.80;24.38;;;;;;;12.93;68.04;100105.19;5097467;28;20040;-72
2021/11/03 01:34:32;;;;;;;30.50;22.05;;;;;;;12.71;68.15;100108.09;5104339;28;20035;-72
2021/11/03 01:36:58;;;;;;;30.15;20.92;;;;;;;12.97;67.78;100122.66;5097357;28;20043;-72
2021/11/03 01:39:23;;;;;;;30.30;22.48;;;;;;;12.44;68.69;100083.91;5085454;28;20540;-71
2021/11/03 01:41:50;;;;;;;29.05;21.90;;;;;;;12.83;68.31;100113.22;5095609;28;20105;-71
2021/11/03 01:44:17;;;;;;;30.13;22.23;;;;;;;12.84;67.71;100093.88;5088808;28;20837;-72
2021/11/03 01:46:47;;;;;;;29.58;21.35;;;;;;;12.81;67.16;100095.69;5077420;28;20051;-72
2021/11/03 01:49:21;;;;;;;35.50;25.05;;;;;;;12.84;67.79;100122.84;5098740;28;20478;-72
2021/11/03 01:52:02;;;;;;;34.67;21.45;;;;;;;12.57;68.13;100115.31;5097498;28;20096;-72
2021/11/03 01:54:40;;;;;;;34.78;21.17;;;;;;;12.81;67.88;100143.97;5102487;28;20506;-72
2021/11/03 01:57:09;;;;;;;26.98;21.55;;;;;;;12.49;68.87;100130.34;5100541;28;20036;-72
2021/11/03 01:59:40;;;;;;;32.60;22.67;;;;;;;12.56;67.95;100113.59;5100101;28;20043;-71
2021/11/03 02:02:07;;;;;;;27.38;20.38;;;;;;;12.61;68.00;100131.03;5090850;28;20055;-72
2021/11/03 02:04:34;;;;;;;33.22;24.40;;;;;;;12.39;68.61;100108.53;5091363;28;20060;-72
2021/11/03 02:07:05;;;;;;;28.73;21.65;;;;;;;12.73;68.23;100168.63;5070298;28;20032;-71
2021/11/03 02:09:31;;;;;;;31.42;24.00;;;;;;;12.44;67.99;100109.34;5088571;28;20039;-72
2021/11/03 02:11:56;;;;;;;32.17;23.23;;;;;;;12.63;68.28;100165.25;5076043;28;20866;-72
2021/11/03 02:14:22;;;;;;;37.92;25.00;;;;;;;12.43;68.81;100161.13;5080609;28;20073;-73
2021/11/03 02:16:52;;;;;;;32.13;23.63;;;;;;;12.71;68.28;100173.03;5081529;28;20054;-73
2021/11/03 02:19:24;;;;;;;32.40;25.27;;;;;;;12.62;68.47;100161.75;5074266;28;20071;-72
2021/11/03 02:22:11;;;;;;;35.28;25.20;;;;;;;12.52;68.78;100181.16;5073962;28;20101;-72
2021/11/03 02:24:54;;;;;;;34.13;22.85;;;;;;;12.03;70.32;100182.59;5095600;28;20164;-71
2021/11/03 02:27:25;;;;;;;31.55;24.15;;;;;;;12.17;70.09;100182.41;5083543;28;20059;-72
2021/11/03 02:29:52;;;;;;;41.05;25.92;;;;;;;12.64;68.81;100165.25;5087772;28;20486;-73
2021/11/03 02:32:22;;;;;;;38.40;27.63;;;;;;;12.93;67.96;100181.56;5086315;28;20048;-73
2021/11/03 02:34:48;;;;;;;34.28;24.40;;;;;;;12.25;69.59;100169.22;5082791;28;20044;-74
2021/11/03 02:37:28;;;;;;;38.03;26.58;;;;;;;12.67;68.71;100181.00;5084272;28;20389;-74
2021/11/03 02:40:11;;;;;;;36.75;25.00;;;;;;;12.40;69.75;100179.53;5088814;28;20478;-73
2021/11/03 02:42:42;;;;;;;34.58;24.27;;;;;;;12.54;69.02;100183.78;5085742;28;20064;-73
2021/11/03 02:45:15;;;;;;;36.97;27.02;;;;;;;12.57;68.46;100160.94;5085361;28;20052;-72
2021/11/03 02:47:41;;;;;;;36.15;25.52;;;;;;;12.64;68.37;100191.56;5086640;28;20044;-73
2021/11/03 02:50:09;;;;;;;33.88;24.52;;;;;;;12.80;68.10;100207.16;5076012;28;20033;-73
2021/11/03 02:52:36;;;;;;;36.50;26.38;;;;;;;12.36;69.07;100198.91;5076720;28;20062;-72
2021/11/03 02:55:03;;;;;;;32.03;23.13;;;;;;;12.64;68.54;100215.25;5091536;28;20024;-72
2021/11/03 02:57:29;;;;;;;33.83;25.88;;;;;;;12.81;68.02;100209.78;5089720;28;20043;-72
2021/11/03 02:59:54;;;;;;;36.13;25.15;;;;;;;12.21;69.34;100199.06;5097259;28;20048;-71
2021/11/03 03:02:20;;;;;;;33.50;23.33;;;;;;;12.55;68.37;100201.31;5076981;28;20482;-73
2021/11/03 03:04:50;;;;;;;33.90;24.75;;;;;;;12.78;68.16;100230.00;5084399;28;20056;-73
2021/11/03 03:07:16;;;;;;;34.30;24.23;;;;;;;12.42;69.39;100233.03;5085841;28;20052;-72
2021/11/03 03:09:42;;;;;;;35.50;24.42;;;;;;;12.67;68.86;100240.69;5084676;28;20063;-74
2021/11/03 03:12:12;;;;;;;34.95;25.90;;;;;;;12.70;68.32;100205.53;5072317;28;20047;-72
2021/11/03 03:14:41;;;;;;;35.40;26.65;;;;;;;12.83;68.32;100229.06;5071094;28;20055;-73
2021/11/03 03:17:09;;;;;;;35.88;26.75;;;;;;;12.52;68.89;100240.84;5072544;28;20102;-73
2021/11/03 03:19:35;;;;;;;38.55;28.63;;;;;;;12.75;68.54;100251.09;5073696;28;20044;-73
2021/11/03 03:22:00;;;;;;;35.90;27.80;;;;;;;12.73;68.31;100259.00;5078108;28;20036;-73
2021/11/03 03:24:26;;;;;;;32.75;26.63;;;;;;;12.20;69.41;100232.38;5084706;28;20115;-73
2021/11/03 03:26:52;;;;;;;38.72;27.63;;;;;;;12.46;69.31;100260.19;5085163;28;20036;-74
2021/11/03 03:29:18;;;;;;;34.20;24.42;;;;;;;12.42;68.83;100269.00;5086519;28;20048;-73
2021/11/03 03:31:45;;;;;;;33.80;26.20;;;;;;;12.77;67.88;100263.38;5079421;28;20414;-73
2021/11/03 03:34:15;;;;;;;44.00;27.35;;;;;;;12.79;67.84;100247.56;5078614;28;20048;-72
2021/11/03 03:36:41;;;;;;;39.63;28.75;;;;;;;13.04;67.15;100262.19;5080459;28;20036;-73
2021/11/03 03:39:09;;;;;;;31.88;25.25;;;;;;;12.61;68.39;100275.81;5074813;28;20040;-70
2021/11/03 03:41:36;;;;;;;39.70;25.50;;;;;;;12.79;67.90;100273.88;5082261;28;20615;-72
2021/11/03 03:44:02;;;;;;;34.33;23.95;;;;;;;12.94;67.13;100280.72;5086037;28;20139;-72
2021/11/03 03:46:28;;;;;;;33.72;25.65;;;;;;;12.88;67.52;100277.28;5084111;28;20044;-72
2021/11/03 03:48:54;;;;;;;36.38;26.67;;;;;;;12.92;67.62;100291.28;5079319;28;20024;-72
2021/11/03 03:51:20;;;;;;;32.30;23.83;;;;;;;12.31;68.35;100257.72;5076099;28;20028;-73
2021/11/03 03:53:47;;;;;;;35.53;25.65;;;;;;;12.63;68.06;100260.03;5087252;28;20051;-72
2021/11/03 03:56:14;;;;;;;33.85;23.90;;;;;;;12.73;67.40;100263.41;5072238;28;20052;-72
2021/11/03 03:58:41;;;;;;;38.67;23.35;;;;;;;12.82;66.73;100255.41;5076329;28;20680;-72
2021/11/03 04:01:07;;;;;;;31.55;23.48;;;;;;;12.60;67.43;100257.44;5098425;27;20055;-72
2021/11/03 04:03:32;;;;;;;32.33;23.15;;;;;;;12.73;67.64;100293.25;5098156;28;20027;-74
2021/11/03 04:05:59;;;;;;;31.73;22.63;;;;;;;12.71;67.25;100302.03;5099888;27;20039;-74
2021/11/03 04:08:25;;;;;;;26.33;22.08;;;;;;;12.80;67.24;100299.31;5099596;27;20031;-72
2021/11/03 04:10:51;;;;;;;37.08;24.85;;;;;;;12.96;66.63;100300.88;5101326;28;20050;-71
2021/11/03 04:13:17;;;;;;;34.85;24.27;;;;;;;12.52;67.61;100299.59;5091350;27;20085;-73
2021/11/03 04:15:45;;;;;;;31.05;23.92;;;;;;;12.80;67.28;100302.81;5099257;27;20111;-72
2021/11/03 04:18:10;;;;;;;34.03;24.63;;;;;;;12.84;66.66;100262.41;5100499;28;20048;-72
2021/11/03 04:20:36;;;;;;;34.50;23.75;;;;;;;12.93;66.36;100268.47;5081576;27;20051;-73
2021/11/03 04:23:01;;;;;;;33.50;23.55;;;;;;;13.14;66.16;100297.16;5087114;28;20437;-72
2021/11/03 04:25:27;;;;;;;31.42;25.30;;;;;;;13.09;66.20;100307.75;5103527;27;20094;-72
2021/11/03 04:27:53;;;;;;;31.70;24.35;;;;;;;12.93;66.21;100268.47;5103415;28;20024;-72
2021/11/03 04:30:21;;;;;;;30.60;23.52;;;;;;;12.58;67.22;100272.38;5104374;27;20058;-72
2021/11/03 04:32:46;;;;;;;34.15;23.80;;;;;;;12.58;67.26;100286.38;5104095;28;20047;-72
2021/11/03 04:35:12;;;;;;;42.58;25.48;;;;;;;12.52;67.48;100286.44;5105381;28;20110;-73
2021/11/03 04:37:39;;;;;;;32.70;26.05;;;;;;;12.02;69.20;100312.31;5102935;28;20088;-73
2021/11/03 04:40:08;;;;;;;32.88;23.35;;;;;;;12.10;69.12;100301.72;5084991;28;20031;-73
2021/11/03 04:42:34;;;;;;;31.95;23.83;;;;;;;11.81;69.46;100289.66;5104283;28;20051;-73
2021/11/03 04:44:59;;;;;;;35.58;25.30;;;;;;;12.01;68.81;100275.50;5101976;28;20506;-73
2021/11/03 04:47:25;;;;;;;33.45;23.70;;;;;;;12.71;67.42;100318.72;5106473;27;20096;-73
2021/11/03 04:49:51;;;;;;;35.28;26.08;;;;;;;12.66;66.92;100299.47;5104263;28;20093;-73
2021/11/03 04:52:16;;;;;;;36.30;25.15;;;;;;;12.78;66.95;100328.31;5089452;28;20141;-71
2021/11/03 04:54:42;;;;;;;32.28;24.58;;;;;;;12.49;67.55;100320.69;5091534;27;20043;-73
2021/11/03 04:57:14;;;;;;;32.92;24.75;;;;;;;12.22;68.27;100303.38;5096272;28;20047;-73
2021/11/03 04:59:40;;;;;;;33.33;24.50;;;;;;;12.76;67.05;100327.47;5103954;28;20501;-74
2021/11/03 05:02:05;;;;;;;31.08;24.48;;;;;;;12.85;66.84;100322.09;5100537;28;20040;-74
2021/11/03 05:04:30;;;;;;;29.55;23.80;;;;;;;12.99;65.94;100307.88;5081264;28;20793;-73
2021/11/03 05:06:56;;;;;;;36.30;24.50;;;;;;;12.38;67.60;100307.63;5084075;28;20075;-73
2021/11/03 05:09:22;;;;;;;38.83;25.08;;;;;;;12.54;67.41;100310.13;5092904;28;20051;-72
2021/11/03 05:11:47;;;;;;;36.17;25.27;;;;;;;12.63;67.63;100350.38;5102568;28;20050;-74
2021/11/03 05:14:12;;;;;;;30.77;24.50;;;;;;;12.20;68.84;100327.09;5103511;28;20040;-73
2021/11/03 05:16:38;;;;;;;35.85;25.67;;;;;;;12.42;68.25;100346.19;5103897;28;20059;-73
2021/11/03 05:19:04;;;;;;;30.30;22.52;;;;;;;12.40;68.56;100353.22;5102667;28;20538;-73
2021/11/03 05:21:31;;;;;;;31.02;23.45;;;;;;;12.40;68.18;100333.94;5091980;28;20032;-72
2021/11/03 05:23:57;;;;;;;28.98;22.10;;;;;;;12.63;67.43;100349.53;5089949;28;20434;-72
2021/11/03 05:26:25;;;;;;;28.25;22.35;;;;;;;12.40;67.80;100323.41;5094707;28;20048;-73
2021/11/03 05:28:55;;;;;;;29.88;21.52;;;;;;;12.84;67.28;100358.97;5092676;28;20087;-73
2021/11/03 05:31:20;;;;;;;30.35;21.63;;;;;;;12.72;67.43;100352.06;5094400;28;20042;-73
2021/11/03 05:33:46;;;;;;;34.72;22.55;;;;;;;12.61;66.74;100303.91;5092915;28;20036;-72
2021/11/03 05:36:20;;;;;;;33.58;24.23;;;;;;;12.64;66.97;100332.81;5102112;28;20131;-72
2021/11/03 05:38:46;;;;;;;33.28;23.48;;;;;;;12.60;67.72;100368.84;5102723;28;20077;-72
2021/11/03 05:41:11;;;;;;;36.45;24.65;;;;;;;12.18;68.59;100352.53;5105640;28;20383;-73
2021/11/03 05:43:37;;;;;;;40.30;25.30;;;;;;;12.68;67.89;100388.06;5108007;28;20602;-74
2021/11/03 05:46:03;;;;;;;32.97;23.20;;;;;;;12.62;67.68;100364.44;5096011;28;20044;-73
2021/11/03 05:48:30;;;;;;;42.55;24.90;;;;;;;12.73;67.24;100372.22;5101393;28;20115;-74
2021/11/03 05:50:56;;;;;;;33.95;25.20;;;;;;;12.93;67.15;100394.88;5096667;28;20418;-75
2021/11/03 05:53:22;;;;;;;35.75;23.90;;;;;;;13.07;66.49;100385.06;5098526;28;20051;-74
2021/11/03 05:55:48;;;;;;;49.15;24.88;;;;;;;13.03;66.56;100405.28;5105147;28;20696;-74
2021/11/03 05:58:13;;;;;;;35.15;26.02;;;;;;;13.10;66.78;100396.44;5109431;28;20066;-74
2021/11/03 06:00:39;;;;;;;31.45;22.52;;;;;;;13.20;66.62;100410.38;5098078;28;20079;-74
2021/11/03 06:03:05;;;;;;;34.67;23.52;;;;;;;13.17;66.75;100423.59;5103469;28;20062;-73
2021/11/03 06:05:31;;;;;;;32.33;24.58;;;;;;;13.19;66.06;100394.59;5101238;28;20069;-76
2021/11/03 06:08:00;;;;;;;37.88;22.08;;;;;;;13.54;65.29;100439.03;5074643;28;20138;-74
2021/11/03 06:10:34;;;;;;;34.17;21.83;;;;;;;13.27;65.54;100414.75;5095523;28;20047;-74
2021/11/03 06:12:59;;;;;;;33.63;22.00;;;;;;;13.42;65.32;100431.28;5106792;28;20058;-74
2021/11/03 06:15:27;;;;;;;34.55;21.50;;;;;;;13.45;65.60;100445.28;5104189;28;20039;-74
2021/11/03 06:17:54;;;;;;;26.45;19.77;;;;;;;13.51;65.58;100453.13;5106448;28;20080;-74
2021/11/03 06:20:22;;;;;;;33.10;21.48;;;;;;;13.15;66.50;100459.63;5098937;28;20491;-73
2021/11/03 06:22:47;;;;;;;37.15;20.83;;;;;;;13.31;66.36;100439.28;5087936;28;20043;-74
2021/11/03 06:25:16;;;;;;;36.63;23.63;;;;;;;13.43;65.66;100435.66;5085411;28;20059;-75
2021/11/03 06:27:42;;;;;;;33.42;20.35;;;;;;;13.04;66.83;100440.41;5103052;28;20043;-72
2021/11/03 06:30:10;;;;;;;29.13;20.52;;;;;;;13.48;66.07;100473.38;5092274;28;20058;-72
2021/11/03 06:32:35;;;;;;;36.95;22.88;;;;;;;13.21;66.71;100453.44;5095684;28;20048;-71
2021/11/03 06:35:05;;;;;;;27.10;19.15;;;;;;;13.56;65.70;100455.72;5099473;28;20375;-72
2021/11/03 06:37:32;;;;;;;32.47;19.83;;;;;;;13.74;65.50;100454.59;5087274;28;20052;-73
2021/11/03 06:39:57;;;;;;;30.10;21.17;;;;;;;13.93;65.08;100492.19;5107968;28;20043;-72
2021/11/03 06:42:23;;;;;;;34.85;21.85;;;;;;;13.91;64.80;100494.84;5095303;28;20031;-72
2021/11/03 06:44:49;;;;;;;36.70;22.83;;;;;;;13.89;65.12;100501.03;5100909;28;20112;-74
2021/11/03 06:47:14;;;;;;;30.88;21.20;;;;;;;14.03;64.90;100498.22;5095877;28;20051;-71
2021/11/03 06:49:40;;;;;;;28.52;20.20;;;;;;;13.10;66.24;100474.59;5086797;28;20730;-77
2021/11/03 06:52:06;;;;;;;30.08;19.98;;;;;;;13.64;66.42;100488.13;5092735;27;20119;-70
2021/11/03 06:54:32;;;;;;;27.08;20.50;;;;;;;14.01;64.77;100502.66;5088758;28;20020;-69
2021/11/03 06:56:58;;;;;;;29.38;20.98;;;;;;;13.91;64.60;100472.88;5084711;28;20085;-69
2021/11/03 06:59:24;;;;;;;31.10;21.25;;;;;;;14.08;64.72;100507.81;5105066;28;20056;-69
2021/11/03 07:01:49;;;;;;;27.63;20.40;;;;;;;13.58;65.84;100480.31;5103415;28;20100;-70
2021/11/03 07:04:15;;;;;;;34.85;21.77;;;;;;;13.64;65.71;100474.06;5101472;28;20292;-70
2021/11/03 07:06:41;;;;;;;39.20;22.75;;;;;;;13.35;66.48;100480.53;5091400;28;20039;-69
2021/11/03 07:09:07;;;;;;;34.65;24.10;;;;;;;13.44;66.24;100483.09;5106157;28;20135;-70
2021/11/03 07:11:33;;;;;;;28.40;21.30;;;;;;;13.99;65.22;100515.84;5084252;28;20440;-70
2021/11/03 07:13:59;;;;;;;28.63;20.33;;;;;;;13.74;65.67;100520.53;5103898;28;20043;-70
2021/11/03 07:16:26;;;;;;;32.60;20.85;;;;;;;13.60;66.01;100520.72;5097580;28;20121;-69
2021/11/03 07:18:51;;;;;;;30.50;18.90;;;;;;;13.29;67.08;100522.75;5103715;28;20039;-70
2021/11/03 07:21:17;;;;;;;27.15;19.08;;;;;;;13.88;65.14;100517.72;5108454;28;20125;-70
2021/11/03 07:23:43;;;;;;;30.50;20.75;;;;;;;12.97;66.76;100504.56;5088867;28;20044;-69
2021/11/03 07:26:08;;;;;;;29.33;20.42;;;;;;;13.67;65.62;100516.22;5084964;28;20406;-70
2021/11/03 07:28:36;;;;;;;27.58;19.13;;;;;;;13.87;64.76;100521.28;5096961;28;20130;-70
2021/11/03 07:31:04;;;;;;;24.27;19.83;;;;;;;13.13;66.71;100506.19;5090564;28;20426;-76
2021/11/03 07:33:31;;;;;;;30.70;20.30;;;;;;;13.67;65.44;100538.22;5084941;28;20617;-74
2021/11/03 07:35:56;;;;;;;28.67;20.00;;;;;;;13.44;66.06;100517.34;5086377;28;20068;-74
2021/11/03 07:38:22;;;;;;;31.38;21.23;;;;;;;13.77;65.69;100541.63;5098423;28;20061;-74
2021/11/03 07:40:54;;;;;;;34.20;21.30;;;;;;;13.95;65.27;100532.59;5086912;28;20052;-75
2021/11/03 07:43:20;;;;;;;31.35;19.33;;;;;;;14.23;64.70;100542.81;5102973;28;20130;-74
2021/11/03 07:45:48;;;;;;;28.80;20.60;;;;;;;14.41;63.83;100541.72;5094020;28;20088;-75
2021/11/03 07:48:14;;;;;;;31.20;22.80;;;;;;;14.38;64.17;100549.69;5104135;28;20076;-75
2021/11/03 07:50:43;;;;;;;27.95;19.05;;;;;;;14.46;63.21;100553.94;5087171;28;20403;-74
2021/11/03 07:53:11;;;;;;;28.38;18.80;;;;;;;13.83;64.60;100530.09;5103072;28;20043;-75
2021/11/03 07:55:37;;;;;;;24.52;19.65;;;;;;;14.17;64.32;100559.63;5092927;28;20048;-75
2021/11/03 07:58:04;;;;;;;31.10;20.55;;;;;;;14.12;63.50;100530.66;5091301;28;20044;-75
2021/11/03 08:00:34;;;;;;;34.28;20.17;;;;;;;13.79;64.98;100523.13;5088540;28;20074;-76
2021/11/03 08:03:00;;;;;;;25.65;17.60;;;;;;;13.99;64.50;100557.19;5091878;28;20051;-75
2021/11/03 08:05:30;;;;;;;25.02;18.65;;;;;;;14.51;63.65;100567.94;5103775;28;20400;-75
2021/11/03 08:07:58;;;;;;;26.17;19.38;;;;;;;14.24;63.65;100560.41;5085105;28;20130;-75
2021/11/03 08:10:25;;;;;;;28.05;19.33;;;;;;;14.19;64.04;100562.22;5090304;28;20048;-74
2021/11/03 08:12:53;;;;;;;27.60;17.88;;;;;;;14.47;63.53;100541.59;5098340;28;20101;-74
2021/11/03 08:15:19;;;;;;;29.92;19.90;;;;;;;14.93;62.55;100575.31;5083291;28;20059;-75
2021/11/03 08:17:45;;;;;;;36.83;21.05;;;;;;;14.44;62.55;100561.00;5102048;28;20044;-75
2021/11/03 08:20:16;;;;;;;32.15;19.92;;;;;;;14.99;62.38;100577.88;5069850;28;20058;-75
2021/11/03 08:22:42;;;;;;;24.05;18.67;;;;;;;14.46;62.91;100551.31;5092852;28;20054;-76
2021/11/03 08:25:08;;;;;;;32.95;20.33;;;;;;;15.01;62.22;100568.16;5072210;28;20044;-76
2021/11/03 08:27:34;;;;;;;25.92;18.92;;;;;;;14.82;61.65;100564.03;5079056;28;20122;-76
2021/11/03 08:30:00;;;;;;;22.27;17.17;;;;;;;14.97;60.80;100574.38;5098260;28;20153;-75
2021/11/03 08:32:32;;;;;;;26.67;17.65;;;;;;;15.28;60.18;100592.38;5096138;28;20096;-77
2021/11/03 08:34:58;;;;;;;23.10;18.38;;;;;;;14.45;61.86;100575.09;5102373;28;20043;-77
2021/11/03 08:37:33;;;;;;;27.35;20.35;;;;;;;14.39;62.36;100586.59;5089552;28;20066;-75
2021/11/03 08:40:01;;;;;;;28.73;16.33;;;;;;;14.40;62.06;100569.88;5089270;28;20436;-75
2021/11/03 08:42:26;;;;;;;27.15;19.48;;;;;;;14.51;61.91;100552.09;5072809;28;20079;-77
2021/11/03 08:44:52;;;;;;;22.67;18.83;;;;;;;14.80;61.37;100563.19;5086604;28;20507;-77
2021/11/03 08:47:18;;;;;;;26.23;20.08;;;;;;;14.97;61.54;100583.16;5104311;28;20044;-77
2021/11/03 08:49:45;;;;;;;40.33;25.98;;;;;;;15.09;61.00;100547.75;5105138;28;20035;-76
2021/11/03 08:52:10;;;;;;;22.10;17.33;;;;;;;14.99;60.76;100564.66;5080580;28;20123;-78
2021/11/03 08:54:45;;;;;;;24.33;18.25;;;;;;;15.38;59.94;100584.28;5090791;28;20043;-77
2021/11/03 08:57:14;;;;;;;22.88;17.80;;;;;;;15.32;60.15;100602.88;5073639;28;20056;-78
2021/11/03 08:59:39;;;;;;;26.73;17.95;;;;;;;15.04;60.95;100598.94;5095912;28;20059;-75
2021/11/03 09:02:05;;;;;;;22.17;17.42;;;;;;;14.46;62.04;100582.97;5093121;28;20047;-78
2021/11/03 09:04:32;;;;;;;23.25;18.00;;;;;;;15.31;60.58;100582.66;5102768;28;20055;-77
2021/11/03 09:06:59;;;;;;;21.27;17.45;;;;;;;15.36;59.99;100591.38;5102742;28;20122;-77
2021/11/03 09:09:26;;;;;;;30.45;17.88;;;;;;;15.39;59.72;100585.16;5092141;28;20050;-77
2021/11/03 09:11:52;;;;;;;23.42;17.08;;;;;;;15.59;59.10;100560.97;5095486;28;20055;-77
2021/11/03 09:14:21;;;;;;;25.38;17.40;;;;;;;15.41;59.38;100557.78;5095329;28;20404;-77
2021/11/03 09:16:51;;;;;;;24.13;17.92;;;;;;;15.54;59.54;100597.22;5088517;28;20151;-76
2021/11/03 09:19:16;;;;;;;25.23;17.67;;;;;;;15.89;59.20;100586.03;5072917;28;20407;-76
2021/11/03 09:21:43;;;;;;;27.30;19.42;;;;;;;16.10;58.75;100587.38;5088539;28;20036;-77
2021/11/03 09:24:09;;;;;;;23.58;17.30;;;;;;;15.95;58.78;100591.22;5080713;28;20089;-76
2021/11/03 09:26:34;;;;;;;31.35;19.67;;;;;;;16.15;57.75;100585.50;5099173;28;20583;-77
2021/11/03 09:29:02;;;;;;;28.02;19.17;;;;;;;15.96;59.14;100595.59;5089605;28;20406;-77
2021/11/03 09:31:28;;;;;;;32.47;20.52;;;;;;;16.21;59.08;100593.34;5100066;28;20050;-77
2021/11/03 09:33:54;;;;;;;27.85;19.05;;;;;;;16.24;58.12;100581.81;5091883;28;20119;-75
2021/11/03 09:36:21;;;;;;;23.15;17.88;;;;;;;16.08;57.88;100598.91;5088322;28;20396;-77
2021/11/03 09:38:49;;;;;;;32.83;16.77;;;;;;;16.07;57.78;100590.09;5094663;28;20052;-74
2021/11/03 09:41:20;;;;;;;39.10;19.60;;;;;;;16.14;58.05;100577.63;5098068;28;20044;-74
2021/11/03 09:43:48;;;;;;;32.78;19.77;;;;;;;16.10;58.20;100590.03;5095222;28;20050;-74
2021/11/03 09:46:19;;;;;;;25.83;19.55;;;;;;;16.48;57.49;100561.00;5088384;28;20069;-74
2021/11/03 09:48:49;;;;;;;24.90;16.85;;;;;;;16.59;56.71;100549.25;5099841;28;20054;-75
2021/11/03 09:51:20;;;;;;;24.83;19.30;;;;;;;16.76;56.40;100548.00;5092382;28;20060;-74
2021/11/03 09:53:50;;;;;;;26.48;19.42;;;;;;;17.05;56.02;100587.13;5092140;28;20176;-74
2021/11/03 09:56:21;;;;;;;26.52;18.05;;;;;;;16.84;56.19;100575.25;5088510;28;20151;-73
2021/11/03 09:58:57;;;;;;;27.73;18.73;;;;;;;16.49;57.21;100586.59;5093358;28;20101;-74
2021/11/03 10:01:32;;;;;;;28.25;18.60;;;;;;;16.83;56.43;100584.09;5072806;28;20039;-75
2021/11/03 10:04:28;;;;;;;35.03;19.23;;;;;;;17.15;55.10;100587.78;5097486;28;20298;-73
2021/11/03 10:07:08;;;;;;;36.72;18.75;;;;;;;16.88;55.12;100579.59;5100233;28;20483;-74
2021/11/03 10:09:37;;;;;;;27.00;17.10;;;;;;;17.35;55.21;100566.03;5088525;28;20036;-75
2021/11/03 10:12:11;;;;;;;19.80;16.30;;;;;;;17.67;54.13;100574.03;5096029;28;20044;-70
2021/11/03 10:14:37;;;;;;;24.35;17.67;;;;;;;17.29;54.72;100545.88;5085372;28;20059;-70
2021/11/03 10:17:24;;;;;;;28.20;17.98;;;;;;;17.59;54.32;100581.34;5099825;28;20472;-75
2021/11/03 10:19:51;;;;;;;26.58;18.30;;;;;;;17.82;53.28;100580.78;5078972;28;20423;-80
2021/11/03 10:22:24;;;;;;;23.95;16.02;;;;;;;17.60;53.05;100547.72;5102902;28;20060;-78
2021/11/03 10:25:15;;;;;;;23.10;16.95;;;;;;;18.10;53.30;100577.34;5097293;28;20038;-79
2021/11/03 10:27:48;;;;;;;22.83;14.38;;;;;;;18.20;52.21;100573.50;5077521;28;20094;-79
2021/11/03 10:30:22;;;;;;;23.73;16.85;;;;;;;18.54;51.79;100557.44;5093848;28;20073;-79
2021/11/03 10:32:48;;;;;;;41.47;18.20;;;;;;;18.76;51.58;100568.31;5075360;28;20055;-77
2021/11/03 10:35:37;;;;;;;26.95;16.92;;;;;;;19.28;50.29;100551.56;5094601;28;20048;-79
2021/11/03 10:38:11;;;;;;;31.13;17.92;;;;;;;19.14;51.25;100549.38;5097610;28;20130;-77
2021/11/03 10:41:05;;;;;;;23.92;16.75;;;;;;;19.60;50.30;100566.44;5104311;28;20131;-76
2021/11/03 10:43:42;;;;;;;27.77;19.77;;;;;;;19.76;49.96;100565.00;5102383;28;20067;-75
2021/11/03 10:46:16;;;;;;;26.83;17.27;;;;;;;19.80;49.45;100547.13;5094512;27;20047;-76
2021/11/03 10:48:55;;;;;;;29.35;18.23;;;;;;;20.04;48.54;100563.97;5091143;28;20075;-75
2021/11/03 10:51:41;;;;;;;23.10;17.67;;;;;;;19.50;48.92;100565.00;5071717;28;20048;-75
2021/11/03 10:54:13;;;;;;;32.05;17.70;;;;;;;19.98;48.93;100562.44;5089142;28;20500;-74
2021/11/03 10:57:12;;;;;;;25.85;17.42;;;;;;;19.87;48.91;100539.78;5090728;28;20044;-75
2021/11/03 10:59:48;;;;;;;24.30;18.15;;;;;;;20.05;49.36;100563.06;5090442;28;20054;-74
2021/11/03 11:02:24;;;;;;;28.17;19.05;;;;;;;19.67;49.10;100541.34;5074818;28;20551;-75
2021/11/03 11:04:50;;;;;;;28.80;17.95;;;;;;;20.39;48.05;100561.78;5073620;28;20048;-74
2021/11/03 11:07:35;;;;;;;22.50;17.25;;;;;;;20.20;47.49;100527.00;5071927;28;20046;-74
2021/11/03 11:10:15;;;;;;;21.00;17.35;;;;;;;20.42;47.24;100565.22;5080372;28;20036;-75
2021/11/03 11:12:43;;;;;;;23.42;16.60;;;;;;;19.93;47.52;100544.88;5079655;28;20032;-75
2021/11/03 11:15:24;;;;;;;32.10;19.67;;;;;;;20.22;48.28;100549.97;5071537;28;20048;-75